createdAt,value
2017-09-04T00:00:27.155Z,61.66
2017-09-04T00:01:07.608Z,61.76
2017-09-04T00:01:48.067Z,61.76
2017-09-04T00:02:28.527Z,61.66
2017-09-04T00:03:08.982Z,61.57
2017-09-04T00:03:49.434Z,61.66
2017-09-04T00:04:29.886Z,61.86
2017-09-04T00:05:10.346Z,61.66
2017-09-04T00:05:50.794Z,61.76
2017-09-04T00:06:31.247Z,61.95
2017-09-04T00:07:11.709Z,61.95
2017-09-04T00:07:52.165Z,61.95
2017-09-04T00:08:32.617Z,61.66
2017-09-04T00:09:13.078Z,61.76
2017-09-04T00:09:53.532Z,61.66
2017-09-04T00:10:33.985Z,61.66
2017-09-04T00:11:14.437Z,61.86
2017-09-04T00:11:54.887Z,61.76
2017-09-04T00:12:35.342Z,62.34
2017-09-04T00:13:15.790Z,62.34
2017-09-04T00:13:56.239Z,61.57
2017-09-04T00:14:36.691Z,61.76
2017-09-04T00:15:17.130Z,61.66
2017-09-04T00:15:57.587Z,62.05
2017-09-04T00:16:38.040Z,62.15
2017-09-04T00:17:18.494Z,62.15
2017-09-04T00:17:58.947Z,62.15
2017-09-04T00:18:39.400Z,62.05
2017-09-04T00:19:19.851Z,62.15
2017-09-04T00:20:00.306Z,61.95
2017-09-04T00:20:40.760Z,62.15
2017-09-04T00:21:21.230Z,62.15
2017-09-04T00:22:01.684Z,62.15
2017-09-04T00:22:42.147Z,62.15
2017-09-04T00:23:22.594Z,62.24
2017-09-04T00:24:03.044Z,62.15
2017-09-04T00:24:43.493Z,62.15
2017-09-04T00:25:23.945Z,62.15
2017-09-04T00:26:04.402Z,62.44
2017-09-04T00:26:44.867Z,62.44
2017-09-04T00:27:25.333Z,61.95
2017-09-04T00:28:05.856Z,62.44
2017-09-04T00:28:46.312Z,62.44
2017-09-04T00:29:26.779Z,62.24
2017-09-04T00:30:07.238Z,62.15
2017-09-04T00:30:47.697Z,62.63
2017-09-04T00:31:28.147Z,62.34
2017-09-04T00:32:08.596Z,62.34
2017-09-04T00:32:49.050Z,62.24
2017-09-04T00:33:29.509Z,62.24
2017-09-04T00:34:09.970Z,62.44
2017-09-04T00:36:07.772Z,62.15
2017-09-04T00:36:48.228Z,62.24
2017-09-04T00:37:28.682Z,62.24
2017-09-04T00:38:09.123Z,62.24
2017-09-04T00:38:49.575Z,62.24
2017-09-04T00:39:30.027Z,62.15
2017-09-04T00:40:10.474Z,62.15
2017-09-04T00:40:50.926Z,62.15
2017-09-04T00:41:31.430Z,62.24
2017-09-04T00:42:11.878Z,62.05
2017-09-04T00:42:52.327Z,62.34
2017-09-04T00:43:32.950Z,62.24
2017-09-04T00:44:13.396Z,62.15
2017-09-04T00:44:53.848Z,62.21
2017-09-04T00:45:34.398Z,62.24
2017-09-04T00:46:14.852Z,62.05
2017-09-04T00:46:55.316Z,62.15
2017-09-04T00:47:35.773Z,62.34
2017-09-04T00:48:16.227Z,62.15
2017-09-04T00:48:56.669Z,62.44
2017-09-04T00:49:37.124Z,62.24
2017-09-04T00:50:17.573Z,62.05
2017-09-04T00:50:58.020Z,62.12
2017-09-04T00:51:38.475Z,62.02
2017-09-04T00:52:18.932Z,62.05
2017-09-04T00:52:59.400Z,61.92
2017-09-04T00:53:39.837Z,62.15
2017-09-04T00:54:20.288Z,62.15
2017-09-04T00:55:00.742Z,61.95
2017-09-04T00:55:41.202Z,61.95
2017-09-04T00:56:21.660Z,62.02
2017-09-04T00:57:02.115Z,62.05
2017-09-04T00:57:42.578Z,62.24
2017-09-04T00:58:23.033Z,62.44
2017-09-04T00:59:03.493Z,62.24
2017-09-04T00:59:43.941Z,62.4
2017-09-04T01:00:24.391Z,62.02
2017-09-04T01:01:04.842Z,62.02
2017-09-04T01:01:45.299Z,62.05
2017-09-04T01:02:25.756Z,62.12
2017-09-04T01:03:06.212Z,61.86
2017-09-04T01:03:46.667Z,61.83
2017-09-04T01:04:27.116Z,62.05
2017-09-04T01:05:07.577Z,62.05
2017-09-04T01:05:48.032Z,62.02
2017-09-04T01:06:28.492Z,62.02
2017-09-04T01:07:08.943Z,62.12
2017-09-04T01:07:49.401Z,62.12
2017-09-04T01:08:29.863Z,62.12
2017-09-04T01:09:10.320Z,62.12
2017-09-04T01:09:50.776Z,62.21
2017-09-04T01:10:31.241Z,62.02
2017-09-04T01:11:11.685Z,62.02
2017-09-04T01:11:52.137Z,62.21
2017-09-04T01:12:32.592Z,62.02
2017-09-04T01:13:13.041Z,61.92
2017-09-04T01:13:53.496Z,62.21
2017-09-04T01:14:33.954Z,62.31
2017-09-04T01:15:14.411Z,62.31
2017-09-04T01:15:54.862Z,62.21
2017-09-04T01:16:35.327Z,61.73
2017-09-04T01:17:15.774Z,62.02
2017-09-04T01:17:56.222Z,62.12
2017-09-04T01:18:36.660Z,61.83
2017-09-04T01:19:17.124Z,62.21
2017-09-04T01:19:57.576Z,62.21
2017-09-04T01:20:38.037Z,62.21
2017-09-04T01:21:18.498Z,62.31
2017-09-04T01:21:58.955Z,62.31
2017-09-04T01:22:39.417Z,62.31
2017-09-04T01:23:19.875Z,62.21
2017-09-04T01:24:00.334Z,62.21
2017-09-04T01:24:40.797Z,62.02
2017-09-04T01:25:21.250Z,62.12
2017-09-04T01:26:01.705Z,62.12
2017-09-04T01:26:42.157Z,62.31
2017-09-04T01:27:22.613Z,62.12
2017-09-04T01:28:03.069Z,62.21
2017-09-04T01:28:43.524Z,62.4
2017-09-04T01:29:23.976Z,62.5
2017-09-04T01:30:04.432Z,62.21
2017-09-04T01:30:44.874Z,62.21
2017-09-04T01:31:25.326Z,62.21
2017-09-04T01:32:05.779Z,62.21
2017-09-04T01:32:46.232Z,62.21
2017-09-04T01:33:26.688Z,62.02
2017-09-04T01:34:07.142Z,62.21
2017-09-04T01:34:47.591Z,62.12
2017-09-04T01:35:28.076Z,62.12
2017-09-04T01:36:08.505Z,62.21
2017-09-04T01:36:48.955Z,62.31
2017-09-04T01:37:29.410Z,62.31
2017-09-04T01:38:09.882Z,62.12
2017-09-04T01:38:50.336Z,62.02
2017-09-04T01:39:30.789Z,62.31
2017-09-04T01:40:11.242Z,62.21
2017-09-04T01:40:51.696Z,62.12
2017-09-04T01:41:32.143Z,62.5
2017-09-04T01:42:12.600Z,62.02
2017-09-04T01:42:53.058Z,62.12
2017-09-04T01:43:33.514Z,62.02
2017-09-04T01:44:13.972Z,62.02
2017-09-04T01:44:54.441Z,62.12
2017-09-04T01:45:34.892Z,62.21
2017-09-04T01:46:15.340Z,62.21
2017-09-04T01:46:55.798Z,62.21
2017-09-04T01:47:36.251Z,62.5
2017-09-04T01:48:16.709Z,62.31
2017-09-04T01:48:57.166Z,62.4
2017-09-04T01:49:37.612Z,62.5
2017-09-04T01:50:18.064Z,62.5
2017-09-04T01:50:58.516Z,62.6
2017-09-04T01:51:38.972Z,62.6
2017-09-04T01:52:19.430Z,62.6
2017-09-04T01:52:59.908Z,62.6
2017-09-04T01:53:40.338Z,62.7
2017-09-04T01:54:20.797Z,62.7
2017-09-04T01:55:01.324Z,62.5
2017-09-04T01:55:41.796Z,62.6
2017-09-04T01:56:22.224Z,62.5
2017-09-04T01:57:02.806Z,62.4
2017-09-04T01:57:43.208Z,62.31
2017-09-04T01:58:23.667Z,62.4
2017-09-04T01:59:04.141Z,62.21
2017-09-04T01:59:44.598Z,62.6
2017-09-04T02:00:25.055Z,62.4
2017-09-04T02:01:05.515Z,62.4
2017-09-04T02:01:45.973Z,62.5
2017-09-04T02:02:26.424Z,62.6
2017-09-04T02:03:06.925Z,62.6
2017-09-04T02:03:47.389Z,62.7
2017-09-04T02:04:27.834Z,62.6
2017-09-04T02:05:08.284Z,62.6
2017-09-04T02:05:48.731Z,62.12
2017-09-04T02:06:29.181Z,62.5
2017-09-04T02:07:09.632Z,62.7
2017-09-04T02:07:50.085Z,62.5
2017-09-04T02:08:30.545Z,62.5
2017-09-04T02:09:10.994Z,62.5
2017-09-04T02:09:51.444Z,62.21
2017-09-04T02:10:31.903Z,62.21
2017-09-04T02:11:12.365Z,62.31
2017-09-04T02:11:52.825Z,62.31
2017-09-04T02:12:33.288Z,62.21
2017-09-04T02:13:13.744Z,62.21
2017-09-04T02:13:54.197Z,62.21
2017-09-04T02:14:34.652Z,62.31
2017-09-04T02:15:15.113Z,62.21
2017-09-04T02:15:55.570Z,62.31
2017-09-04T02:16:36.020Z,62.31
2017-09-04T02:17:16.471Z,62.4
2017-09-04T02:17:56.924Z,62.6
2017-09-04T02:18:37.382Z,62.31
2017-09-04T02:19:17.832Z,62.4
2017-09-04T02:19:58.283Z,62.4
2017-09-04T02:20:38.733Z,62.31
2017-09-04T02:21:19.180Z,62.31
2017-09-04T02:21:59.641Z,62.31
2017-09-04T02:22:40.101Z,62.21
2017-09-04T02:23:20.542Z,62.31
2017-09-04T02:24:00.993Z,62.31
2017-09-04T02:24:41.445Z,62.31
2017-09-04T02:25:21.904Z,62.31
2017-09-04T02:26:02.353Z,62.31
2017-09-04T02:26:42.804Z,62.7
2017-09-04T02:27:23.260Z,62.6
2017-09-04T02:28:03.711Z,62.4
2017-09-04T02:28:44.162Z,62.5
2017-09-04T02:29:24.610Z,62.4
2017-09-04T02:30:05.066Z,62.4
2017-09-04T02:30:45.512Z,62.6
2017-09-04T02:31:25.981Z,62.6
2017-09-04T02:32:06.401Z,62.4
2017-09-04T02:32:46.856Z,62.4
2017-09-04T02:33:27.309Z,62.6
2017-09-04T02:34:07.760Z,62.5
2017-09-04T02:34:48.219Z,62.6
2017-09-04T02:35:28.678Z,62.4
2017-09-04T02:36:09.121Z,62.4
2017-09-04T02:36:49.572Z,62.4
2017-09-04T02:37:30.020Z,62.6
2017-09-04T02:38:10.488Z,62.6
2017-09-04T02:38:50.940Z,62.6
2017-09-04T02:39:31.398Z,62.7
2017-09-04T02:40:11.853Z,62.79
2017-09-04T02:40:52.313Z,62.7
2017-09-04T02:41:32.770Z,62.7
2017-09-04T02:42:13.228Z,62.6
2017-09-04T02:42:53.682Z,62.6
2017-09-04T02:43:34.217Z,62.4
2017-09-04T02:44:14.677Z,62.5
2017-09-04T02:44:55.129Z,62.5
2017-09-04T02:45:35.600Z,62.4
2017-09-04T02:46:16.060Z,62.4
2017-09-04T02:46:56.514Z,62.4
2017-09-04T02:47:36.967Z,62.4
2017-09-04T02:48:17.424Z,62.4
2017-09-04T02:48:57.882Z,62.4
2017-09-04T02:49:38.339Z,62.6
2017-09-04T02:50:18.790Z,62.4
2017-09-04T02:50:59.242Z,62.4
2017-09-04T02:51:39.702Z,62.4
2017-09-04T02:52:20.160Z,62.31
2017-09-04T02:53:00.606Z,62.4
2017-09-04T02:53:41.065Z,62.6
2017-09-04T02:54:21.517Z,62.4
2017-09-04T02:55:01.987Z,62.6
2017-09-04T02:55:42.449Z,62.6
2017-09-04T02:56:22.907Z,62.31
2017-09-04T02:57:03.355Z,62.31
2017-09-04T02:57:43.813Z,62.79
2017-09-04T02:58:24.272Z,62.6
2017-09-04T02:59:04.717Z,62.6
2017-09-04T02:59:45.168Z,62.31
2017-09-04T03:00:25.612Z,62.4
2017-09-04T03:01:06.153Z,62.5
2017-09-04T03:01:46.609Z,62.6
2017-09-04T03:02:27.063Z,62.6
2017-09-04T03:03:07.594Z,62.7
2017-09-04T03:03:48.057Z,62.7
2017-09-04T03:04:28.518Z,62.6
2017-09-04T03:05:08.965Z,62.6
2017-09-04T03:05:49.419Z,62.5
2017-09-04T03:06:29.873Z,62.79
2017-09-04T03:07:10.327Z,62.89
2017-09-04T03:07:50.796Z,62.98
2017-09-04T03:08:31.252Z,62.89
2017-09-04T03:09:11.707Z,62.86
2017-09-04T03:09:52.160Z,62.79
2017-09-04T03:10:32.615Z,62.89
2017-09-04T03:11:13.070Z,62.7
2017-09-04T03:11:53.531Z,63.47
2017-09-04T03:12:33.986Z,63.24
2017-09-04T03:13:14.455Z,63.05
2017-09-04T03:13:54.894Z,63.18
2017-09-04T03:14:35.356Z,63.08
2017-09-04T03:15:15.826Z,63.15
2017-09-04T03:15:56.282Z,63.05
2017-09-04T03:16:36.732Z,63.05
2017-09-04T03:17:17.186Z,63.05
2017-09-04T03:17:57.632Z,62.47
2017-09-04T03:18:38.086Z,62.79
2017-09-04T03:19:18.535Z,62.76
2017-09-04T03:19:58.990Z,62.86
2017-09-04T03:20:39.440Z,62.89
2017-09-04T03:21:19.897Z,62.79
2017-09-04T03:22:00.354Z,62.86
2017-09-04T03:22:40.800Z,62.89
2017-09-04T03:23:21.339Z,62.89
2017-09-04T03:24:01.794Z,62.89
2017-09-04T03:24:42.245Z,62.86
2017-09-04T03:25:22.701Z,62.76
2017-09-04T03:26:03.149Z,62.76
2017-09-04T03:26:43.604Z,62.89
2017-09-04T03:27:24.062Z,62.7
2017-09-04T03:28:04.518Z,62.76
2017-09-04T03:28:44.982Z,62.89
2017-09-04T03:29:25.438Z,62.76
2017-09-04T03:30:05.898Z,62.89
2017-09-04T03:30:46.334Z,62.7
2017-09-04T03:31:26.846Z,62.7
2017-09-04T03:32:07.303Z,62.66
2017-09-04T03:32:47.760Z,62.86
2017-09-04T03:33:28.265Z,62.89
2017-09-04T03:34:08.723Z,62.66
2017-09-04T03:34:49.170Z,62.7
2017-09-04T03:35:29.623Z,63.05
2017-09-04T03:36:10.084Z,62.95
2017-09-04T03:36:50.550Z,62.79
2017-09-04T03:37:31.003Z,62.7
2017-09-04T03:38:11.461Z,62.76
2017-09-04T03:38:51.931Z,62.98
2017-09-04T03:39:32.388Z,62.7
2017-09-04T03:40:12.851Z,62.89
2017-09-04T03:40:53.307Z,62.89
2017-09-04T03:41:33.763Z,62.89
2017-09-04T03:42:14.215Z,62.66
2017-09-04T03:42:54.668Z,62.95
2017-09-04T03:43:35.124Z,62.7
2017-09-04T03:44:15.586Z,62.86
2017-09-04T03:44:56.033Z,62.79
2017-09-04T03:45:36.494Z,62.89
2017-09-04T03:46:16.948Z,62.89
2017-09-04T03:46:57.399Z,62.89
2017-09-04T03:47:37.843Z,62.98
2017-09-04T03:48:18.305Z,62.89
2017-09-04T03:48:58.764Z,62.66
2017-09-04T03:49:39.224Z,62.6
2017-09-04T03:50:19.672Z,62.89
2017-09-04T03:51:00.133Z,62.98
2017-09-04T03:51:40.583Z,62.76
2017-09-04T03:52:21.039Z,62.7
2017-09-04T03:53:01.498Z,62.95
2017-09-04T03:53:41.957Z,62.89
2017-09-04T03:54:22.405Z,62.98
2017-09-04T03:55:02.859Z,62.76
2017-09-04T03:55:43.318Z,62.86
2017-09-04T03:56:23.773Z,62.89
2017-09-04T03:57:04.242Z,62.89
2017-09-04T03:57:44.694Z,62.76
2017-09-04T03:58:25.157Z,62.98
2017-09-04T03:59:05.583Z,62.86
2017-09-04T03:59:46.039Z,62.66
2017-09-04T04:00:26.501Z,62.89
2017-09-04T04:01:06.957Z,62.86
2017-09-04T04:01:47.414Z,62.7
2017-09-04T04:02:27.856Z,62.76
2017-09-04T04:03:08.314Z,62.76
2017-09-04T04:03:48.772Z,62.79
2017-09-04T04:04:29.220Z,62.76
2017-09-04T04:05:09.673Z,62.66
2017-09-04T04:05:50.126Z,62.7
2017-09-04T04:06:30.593Z,62.76
2017-09-04T04:07:11.085Z,62.89
2017-09-04T04:07:51.535Z,62.95
2017-09-04T04:08:31.996Z,62.66
2017-09-04T04:09:12.448Z,62.66
2017-09-04T04:09:52.901Z,62.66
2017-09-04T04:10:33.431Z,62.76
2017-09-04T04:11:13.892Z,62.79
2017-09-04T04:11:54.351Z,62.66
2017-09-04T04:12:34.857Z,62.86
2017-09-04T04:13:15.304Z,62.76
2017-09-04T04:13:55.758Z,62.89
2017-09-04T04:14:36.230Z,62.6
2017-09-04T04:15:16.677Z,62.6
2017-09-04T04:15:57.123Z,62.6
2017-09-04T04:16:37.579Z,62.7
2017-09-04T04:17:18.023Z,62.57
2017-09-04T04:17:58.495Z,62.5
2017-09-04T04:18:38.943Z,62.6
2017-09-04T04:19:19.392Z,62.6
2017-09-04T04:19:59.855Z,62.66
2017-09-04T04:20:40.417Z,62.79
2017-09-04T04:21:20.873Z,62.6
2017-09-04T04:22:01.325Z,62.7
2017-09-04T04:22:41.781Z,62.66
2017-09-04T04:23:22.232Z,62.6
2017-09-04T04:24:02.692Z,62.37
2017-09-04T04:26:15.588Z,62.31
2017-09-04T04:26:56.045Z,62.18
2017-09-04T04:27:36.486Z,62.31
2017-09-04T04:28:16.939Z,62.28
2017-09-04T04:28:57.388Z,62.21
2017-09-04T04:29:37.849Z,62.31
2017-09-04T04:30:18.311Z,62.5
2017-09-04T04:30:58.756Z,62.31
2017-09-04T04:31:39.333Z,62.31
2017-09-04T04:32:19.779Z,62.31
2017-09-04T04:33:00.227Z,62.31
2017-09-04T04:33:40.679Z,62.6
2017-09-04T04:34:21.250Z,62.21
2017-09-04T04:35:01.692Z,62.5
2017-09-04T04:35:42.144Z,62.6
2017-09-04T04:36:22.608Z,62.6
2017-09-04T04:37:03.056Z,62.5
2017-09-04T04:37:43.493Z,62.7
2017-09-04T04:38:23.938Z,62.5
2017-09-04T04:39:04.389Z,62.6
2017-09-04T04:39:44.850Z,62.5
2017-09-04T04:40:25.313Z,62.5
2017-09-04T04:41:05.746Z,62.5
2017-09-04T04:41:46.205Z,62.4
2017-09-04T04:42:26.686Z,62.21
2017-09-04T04:43:07.132Z,62.5
2017-09-04T04:43:47.584Z,62.21
2017-09-04T04:44:28.070Z,62.21
2017-09-04T04:45:08.528Z,62.21
2017-09-04T04:45:48.985Z,62.31
2017-09-04T04:46:29.527Z,62.5
2017-09-04T04:47:09.994Z,62.21
2017-09-04T04:47:50.446Z,62.5
2017-09-04T04:48:30.900Z,62.31
2017-09-04T04:49:11.333Z,62.5
2017-09-04T04:49:51.775Z,62.31
2017-09-04T04:50:32.232Z,62.31
2017-09-04T04:51:12.688Z,62.21
2017-09-04T04:51:53.138Z,62.31
2017-09-04T04:52:33.598Z,62.31
2017-09-04T04:53:14.043Z,62.31
2017-09-04T04:53:54.506Z,62.31
2017-09-04T04:54:35.070Z,62.31
2017-09-04T04:55:15.649Z,62.31
2017-09-04T04:55:56.156Z,62.21
2017-09-04T04:56:36.667Z,62.6
2017-09-04T04:57:17.061Z,62.6
2017-09-04T04:57:57.509Z,62.4
2017-09-04T04:58:37.959Z,62.6
2017-09-04T04:59:18.407Z,62.4
2017-09-04T04:59:58.861Z,62.7
2017-09-04T05:00:39.317Z,62.5
2017-09-04T05:01:19.775Z,62.6
2017-09-04T05:02:00.232Z,62.6
2017-09-04T05:02:40.685Z,62.6
2017-09-04T05:03:21.147Z,62.6
2017-09-04T05:04:01.602Z,62.6
2017-09-04T05:04:42.054Z,62.6
2017-09-04T05:05:22.511Z,62.6
2017-09-04T05:06:02.940Z,62.6
2017-09-04T05:06:43.399Z,62.4
2017-09-04T05:07:23.849Z,62.7
2017-09-04T05:08:05.300Z,62.7
2017-09-04T05:08:45.816Z,62.6
2017-09-04T05:09:26.266Z,62.6
2017-09-04T05:10:06.722Z,62.6
2017-09-04T05:10:47.168Z,62.7
2017-09-04T05:11:27.622Z,62.6
2017-09-04T05:12:08.071Z,62.6
2017-09-04T05:12:48.519Z,62.6
2017-09-04T05:13:28.971Z,62.79
2017-09-04T05:14:09.415Z,62.6
2017-09-04T05:14:49.854Z,62.6
2017-09-04T05:15:30.317Z,62.6
2017-09-04T05:16:10.777Z,62.5
2017-09-04T05:16:51.243Z,62.6
2017-09-04T05:17:31.809Z,62.4
2017-09-04T05:18:12.252Z,62.6
2017-09-04T05:18:52.717Z,62.4
2017-09-04T05:19:33.161Z,62.4
2017-09-04T05:20:13.615Z,62.5
2017-09-04T05:20:54.062Z,62.4
2017-09-04T05:21:34.522Z,62.6
2017-09-04T05:22:14.974Z,62.4
2017-09-04T05:22:55.430Z,62.4
2017-09-04T05:23:35.887Z,62.6
2017-09-04T05:24:16.339Z,62.12
2017-09-04T05:24:56.794Z,62.4
2017-09-04T05:25:37.247Z,62.6
2017-09-04T05:26:17.704Z,62.4
2017-09-04T05:26:58.157Z,62.6
2017-09-04T05:27:38.607Z,62.4
2017-09-04T05:28:19.057Z,62.6
2017-09-04T05:28:59.513Z,62.4
2017-09-04T05:29:39.971Z,62.6
2017-09-04T05:30:20.430Z,62.4
2017-09-04T05:31:00.890Z,62.5
2017-09-04T05:31:41.341Z,62.4
2017-09-04T05:32:21.821Z,62.4
2017-09-04T05:33:02.268Z,62.4
2017-09-04T05:33:42.733Z,62.6
2017-09-04T05:34:23.245Z,62.4
2017-09-04T05:35:03.704Z,62.5
2017-09-04T05:35:44.154Z,62.4
2017-09-04T05:36:24.592Z,62.5
2017-09-04T05:37:05.039Z,62.21
2017-09-04T05:37:45.475Z,62.5
2017-09-04T05:38:25.937Z,62.5
2017-09-04T05:39:06.385Z,62.31
2017-09-04T05:39:46.835Z,62.79
2017-09-04T05:40:27.280Z,62.4
2017-09-04T05:41:07.735Z,62.31
2017-09-04T05:41:48.180Z,62.31
2017-09-04T05:42:28.638Z,62.21
2017-09-04T05:43:09.078Z,62.31
2017-09-04T05:43:49.512Z,62.21
2017-09-04T05:44:29.985Z,62.31
2017-09-04T05:45:10.432Z,62.31
2017-09-04T05:45:50.877Z,62.21
2017-09-04T05:46:31.388Z,62.6
2017-09-04T05:47:11.835Z,62.79
2017-09-04T05:47:52.296Z,62.6
2017-09-04T05:48:32.748Z,62.5
2017-09-04T05:49:13.194Z,62.5
2017-09-04T05:49:53.640Z,62.5
2017-09-04T05:50:34.092Z,62.31
2017-09-04T05:51:14.550Z,62.5
2017-09-04T05:51:54.990Z,62.5
2017-09-04T05:52:35.436Z,62.5
2017-09-04T05:53:15.888Z,62.5
2017-09-04T05:53:56.363Z,62.5
2017-09-04T05:54:36.777Z,62.31
2017-09-04T05:55:17.239Z,62.5
2017-09-04T05:55:57.720Z,62.6
2017-09-04T05:56:38.171Z,62.31
2017-09-04T05:57:18.618Z,62.4
2017-09-04T05:57:59.060Z,62.4
2017-09-04T05:58:39.534Z,62.5
2017-09-04T05:59:19.980Z,62.5
2017-09-04T06:00:00.444Z,62.5
2017-09-04T06:00:40.891Z,62.5
2017-09-04T06:01:21.350Z,62.31
2017-09-04T06:02:01.800Z,62.31
2017-09-04T06:02:42.262Z,62.31
2017-09-04T06:03:22.726Z,62.12
2017-09-04T06:04:03.169Z,62.02
2017-09-04T06:04:43.625Z,62.12
2017-09-04T06:05:24.049Z,62.12
2017-09-04T06:06:04.496Z,62.12
2017-09-04T06:06:44.979Z,62.12
2017-09-04T06:07:25.429Z,62.12
2017-09-04T06:08:05.876Z,62.31
2017-09-04T06:08:46.325Z,62.21
2017-09-04T06:09:26.783Z,62.02
2017-09-04T06:10:07.234Z,62.12
2017-09-04T06:10:47.707Z,62.12
2017-09-04T06:11:28.150Z,62.21
2017-09-04T06:12:08.601Z,62.02
2017-09-04T06:12:49.055Z,62.12
2017-09-04T06:13:29.511Z,62.12
2017-09-04T06:14:09.966Z,62.21
2017-09-04T06:14:50.409Z,62.02
2017-09-04T06:15:30.865Z,62.02
2017-09-04T06:16:11.325Z,62.21
2017-09-04T06:16:51.777Z,61.92
2017-09-04T06:17:32.252Z,62.21
2017-09-04T06:18:12.714Z,62.02
2017-09-04T06:18:53.146Z,61.92
2017-09-04T06:19:33.594Z,61.92
2017-09-04T06:20:14.056Z,62.12
2017-09-04T06:20:54.532Z,62.12
2017-09-04T06:21:34.989Z,62.12
2017-09-04T06:22:15.442Z,62.12
2017-09-04T06:22:55.894Z,62.12
2017-09-04T06:23:36.352Z,62.02
2017-09-04T06:24:16.801Z,62.12
2017-09-04T06:24:57.249Z,61.92
2017-09-04T06:25:37.703Z,62.21
2017-09-04T06:26:18.153Z,62.12
2017-09-04T06:26:58.646Z,61.92
2017-09-04T06:27:39.071Z,61.83
2017-09-04T06:28:19.522Z,62.21
2017-09-04T06:28:59.987Z,62.21
2017-09-04T06:29:40.438Z,62.02
2017-09-04T06:30:20.981Z,62.02
2017-09-04T06:31:01.425Z,62.21
2017-09-04T06:31:41.878Z,62.21
2017-09-04T06:32:22.331Z,62.31
2017-09-04T06:33:02.785Z,62.31
2017-09-04T06:33:43.243Z,62.21
2017-09-04T06:34:23.704Z,62.31
2017-09-04T06:35:04.150Z,62.12
2017-09-04T06:35:44.607Z,62.12
2017-09-04T06:36:25.062Z,62.21
2017-09-04T06:37:05.521Z,62.21
2017-09-04T06:37:45.969Z,62.21
2017-09-04T06:38:26.416Z,62.4
2017-09-04T06:39:06.864Z,62.02
2017-09-04T06:39:47.314Z,62.12
2017-09-04T06:40:27.864Z,62.12
2017-09-04T06:41:08.313Z,61.92
2017-09-04T06:41:48.764Z,61.86
2017-09-04T06:42:29.325Z,61.63
2017-09-04T06:43:09.772Z,61.54
2017-09-04T06:43:50.221Z,61.63
2017-09-04T06:44:30.771Z,61.25
2017-09-04T06:45:11.223Z,61.25
2017-09-04T06:45:51.682Z,61.47
2017-09-04T06:46:32.140Z,61.47
2017-09-04T06:47:12.590Z,61.47
2017-09-04T06:47:53.043Z,61.57
2017-09-04T06:48:33.491Z,61.66
2017-09-04T06:49:13.934Z,61.27
2017-09-04T06:49:54.386Z,61.27
2017-09-04T06:50:34.881Z,61.57
2017-09-04T06:51:15.299Z,61.66
2017-09-04T06:51:55.772Z,61.47
2017-09-04T06:52:36.227Z,61.08
2017-09-04T06:53:16.678Z,61.27
2017-09-04T06:53:57.120Z,60.69
2017-09-04T06:54:37.564Z,60.99
2017-09-04T06:56:25.050Z,60.89
2017-09-04T06:57:05.508Z,61.08
2017-09-04T06:57:45.980Z,61.18
2017-09-04T06:58:26.426Z,60.99
2017-09-04T06:59:06.877Z,60.79
2017-09-04T06:59:47.327Z,61.21
2017-09-04T07:00:27.782Z,60.63
2017-09-04T07:01:08.231Z,60.82
2017-09-04T07:01:48.679Z,60.63
2017-09-04T07:02:29.123Z,60.44
2017-09-04T07:03:09.572Z,60.72
2017-09-04T07:03:50.033Z,60.63
2017-09-04T07:04:30.495Z,60.63
2017-09-04T07:05:10.942Z,60.53
2017-09-04T07:05:51.401Z,60.14
2017-09-04T07:06:31.850Z,60.14
2017-09-04T07:07:12.300Z,60.14
2017-09-04T07:07:52.766Z,60.05
2017-09-04T07:08:33.206Z,60.05
2017-09-04T07:09:13.654Z,60.05
2017-09-04T07:09:54.113Z,60.14
2017-09-04T07:10:34.569Z,59.95
2017-09-04T07:11:15.021Z,59.69
2017-09-04T07:11:55.477Z,59.5
2017-09-04T07:12:35.938Z,59.98
2017-09-04T07:13:16.394Z,60.08
2017-09-04T07:13:56.848Z,59.79
2017-09-04T07:14:37.306Z,59.89
2017-09-04T07:15:17.760Z,60.17
2017-09-04T07:15:58.221Z,59.79
2017-09-04T07:16:38.670Z,59.79
2017-09-04T07:17:19.122Z,59.98
2017-09-04T07:17:59.573Z,59.79
2017-09-04T07:18:40.036Z,59.89
2017-09-04T07:19:20.488Z,59.69
2017-09-04T07:20:00.971Z,59.98
2017-09-04T07:20:41.407Z,60.17
2017-09-04T07:21:21.854Z,60.08
2017-09-04T07:22:02.312Z,60.17
2017-09-04T07:22:42.773Z,59.5
2017-09-04T07:23:23.221Z,60.08
2017-09-04T07:24:03.675Z,60.08
2017-09-04T07:24:44.127Z,59.98
2017-09-04T07:25:24.583Z,59.98
2017-09-04T07:26:05.045Z,60.08
2017-09-04T07:26:45.491Z,60.08
2017-09-04T07:27:25.945Z,60.08
2017-09-04T07:28:06.392Z,59.79
2017-09-04T07:28:46.848Z,59.98
2017-09-04T07:29:27.312Z,59.98
2017-09-04T07:30:07.759Z,59.89
2017-09-04T07:30:48.213Z,60.08
2017-09-04T07:31:28.665Z,59.89
2017-09-04T07:32:09.137Z,60.08
2017-09-04T07:32:49.608Z,59.79
2017-09-04T07:33:30.056Z,59.89
2017-09-04T07:34:10.511Z,59.59
2017-09-04T07:34:50.968Z,60.08
2017-09-04T07:35:31.468Z,59.69
2017-09-04T07:36:11.924Z,59.79
2017-09-04T07:36:52.380Z,59.69
2017-09-04T07:37:32.956Z,59.5
2017-09-04T07:38:13.415Z,59.59
2017-09-04T07:38:53.873Z,59.59
2017-09-04T07:39:34.330Z,59.72
2017-09-04T07:40:14.801Z,59.4
2017-09-04T07:40:55.239Z,59.5
2017-09-04T07:41:35.689Z,59.5
2017-09-04T07:42:16.139Z,59.23
2017-09-04T07:42:56.592Z,59.53
2017-09-04T07:43:37.049Z,59.43
2017-09-04T07:44:17.505Z,59.43
2017-09-04T07:44:57.964Z,59.33
2017-09-04T07:45:38.418Z,59.33
2017-09-04T07:46:18.882Z,59.14
2017-09-04T07:46:59.339Z,59.23
2017-09-04T07:47:39.826Z,59.53
2017-09-04T07:48:20.269Z,59.23
2017-09-04T07:49:00.723Z,59.33
2017-09-04T07:49:41.169Z,59.23
2017-09-04T07:50:21.622Z,59.33
2017-09-04T07:51:02.079Z,59.33
2017-09-04T07:51:42.532Z,59.23
2017-09-04T07:52:22.986Z,59.23
2017-09-04T07:53:03.440Z,59.43
2017-09-04T07:53:43.889Z,59.33
2017-09-04T07:54:24.357Z,59.23
2017-09-04T07:55:04.811Z,59.14
2017-09-04T07:55:45.269Z,59.43
2017-09-04T07:56:25.716Z,58.95
2017-09-04T07:57:06.165Z,58.85
2017-09-04T07:57:46.628Z,58.47
2017-09-04T07:58:27.081Z,58.37
2017-09-04T07:59:07.534Z,58.27
2017-09-04T07:59:48.052Z,58.47
2017-09-04T08:00:28.465Z,58.47
2017-09-04T08:01:08.892Z,58.75
2017-09-04T08:01:49.343Z,58.65
2017-09-04T08:02:29.800Z,58.85
2017-09-04T08:03:10.295Z,58.65
2017-09-04T08:03:50.745Z,58.95
2017-09-04T08:04:31.247Z,58.85
2017-09-04T08:05:11.706Z,58.85
2017-09-04T08:05:52.159Z,58.56
2017-09-04T08:06:32.612Z,58.47
2017-09-04T08:07:13.061Z,58.85
2017-09-04T08:07:53.520Z,58.75
2017-09-04T08:08:33.984Z,58.37
2017-09-04T08:09:14.427Z,58.75
2017-09-04T08:09:54.895Z,58.85
2017-09-04T08:10:35.352Z,58.85
2017-09-04T08:11:15.804Z,58.85
2017-09-04T08:11:56.257Z,58.85
2017-09-04T08:12:36.702Z,58.47
2017-09-04T08:13:17.155Z,58.49
2017-09-04T08:13:57.616Z,58.27
2017-09-04T08:14:38.066Z,58.49
2017-09-04T08:15:18.517Z,58.2
2017-09-04T08:15:58.967Z,58.11
2017-09-04T08:16:39.426Z,58.01
2017-09-04T08:17:19.882Z,57.91
2017-09-04T08:18:00.338Z,58.3
2017-09-04T08:18:40.796Z,58.3
2017-09-04T08:19:21.258Z,58.3
2017-09-04T08:20:01.705Z,58.01
2017-09-04T08:20:42.164Z,57.91
2017-09-04T08:21:22.626Z,57.91
2017-09-04T08:22:03.074Z,58.01
2017-09-04T08:22:43.523Z,57.71
2017-09-04T08:23:23.970Z,58.01
2017-09-04T08:24:04.422Z,58.2
2017-09-04T08:24:44.850Z,58.3
2017-09-04T08:25:25.297Z,58.3
2017-09-04T08:26:05.753Z,58.3
2017-09-04T08:26:46.209Z,58.2
2017-09-04T08:27:26.668Z,58.39
2017-09-04T08:28:07.115Z,58.01
2017-09-04T08:28:47.566Z,57.81
2017-09-04T08:29:28.035Z,58.01
2017-09-04T08:30:08.474Z,58.01
2017-09-04T08:30:48.931Z,58.11
2017-09-04T08:31:29.451Z,57.91
2017-09-04T08:32:09.904Z,58.11
2017-09-04T08:32:50.381Z,57.62
2017-09-04T08:33:30.820Z,57.43
2017-09-04T08:34:11.267Z,57.45
2017-09-04T08:34:51.724Z,57.45
2017-09-04T08:35:32.175Z,57.84
2017-09-04T08:36:12.623Z,57.94
2017-09-04T08:36:53.078Z,57.55
2017-09-04T08:37:33.531Z,56.97
2017-09-04T08:38:13.991Z,57.17
2017-09-04T08:38:54.435Z,57.17
2017-09-04T08:39:34.887Z,57.45
2017-09-04T08:40:15.343Z,57.45
2017-09-04T08:40:55.799Z,57.17
2017-09-04T08:41:36.253Z,57.45
2017-09-04T08:42:16.704Z,57.55
2017-09-04T08:42:57.158Z,57.07
2017-09-04T08:43:37.614Z,57.17
2017-09-04T08:44:18.067Z,57.45
2017-09-04T08:44:58.520Z,57.45
2017-09-04T08:45:38.977Z,57.36
2017-09-04T08:46:19.433Z,57.26
2017-09-04T08:46:59.994Z,57.17
2017-09-04T08:47:40.462Z,56.87
2017-09-04T08:48:21.003Z,57.07
2017-09-04T08:49:01.447Z,57.07
2017-09-04T08:49:41.906Z,57.17